sensor_id;sensor_type;location;lat;lon;timestamp;P1;durP1;ratioP1;P2;durP2;ratioP2
35028;SDS011;35394;54.282;10.070;2023-10-31T16:15:28;8.30;;;1.23;;
35028;SDS011;35394;54.282;10.070;2023-10-31T16:15:58;1.65;;;0.75;;
35028;SDS011;35394;54.282;10.070;2023-10-31T16:16:29;1.30;;;0.70;;
35028;SDS011;35394;54.282;10.070;2023-10-31T16:16:59;1.63;;;0.70;;
35028;SDS011;35394;54.282;10.070;2023-10-31T16:17:30;1.37;;;0.70;;
35028;SDS011;35394;54.282;10.070;2023-10-31T16:18:01;1.23;;;0.68;;
35028;SDS011;35394;54.282;10.070;2023-10-31T16:18:32;1.27;;;0.80;;
35028;SDS011;35394;54.282;10.070;2023-10-31T16:19:02;0.83;;;0.40;;
35028;SDS011;35394;54.282;10.070;2023-10-31T16:19:33;1.60;;;0.70;;
35028;SDS011;35394;54.282;10.070;2023-10-31T16:20:03;0.93;;;0.50;;
35028;SDS011;35394;54.282;10.070;2023-10-31T16:20:35;1.17;;;0.60;;
35028;SDS011;35394;54.282;10.070;2023-10-31T16:21:06;0.33;;;0.30;;
35028;SDS011;35394;54.282;10.070;2023-10-31T16:21:45;0.60;;;0.40;;
35028;SDS011;35394;54.282;10.070;2023-10-31T16:22:15;0.77;;;0.40;;
35028;SDS011;35394;54.282;10.070;2023-10-31T16:22:46;0.50;;;0.30;;
35028;SDS011;35394;54.282;10.070;2023-10-31T16:23:16;0.60;;;0.43;;
35028;SDS011;35394;54.282;10.070;2023-10-31T16:23:49;0.57;;;0.40;;
35028;SDS011;35394;54.282;10.070;2023-10-31T16:24:20;0.57;;;0.30;;
35028;SDS011;35394;54.282;10.070;2023-10-31T16:24:51;0.90;;;0.40;;
35028;SDS011;35394;54.282;10.070;2023-10-31T16:25:21;0.60;;;0.30;;
35028;SDS011;35394;54.282;10.070;2023-10-31T16:25:52;0.50;;;0.40;;
35028;SDS011;35394;54.282;10.070;2023-10-31T16:26:23;0.40;;;0.30;;
35028;SDS011;35394;54.282;10.070;2023-10-31T16:26:53;0.55;;;0.30;;
35028;SDS011;35394;54.282;10.070;2023-10-31T16:27:24;0.40;;;0.30;;
35028;SDS011;35394;54.282;10.070;2023-10-31T16:27:54;0.30;;;0.30;;
35028;SDS011;35394;54.282;10.070;2023-10-31T16:28:25;0.50;;;0.30;;
35028;SDS011;35394;54.282;10.070;2023-10-31T16:28:59;0.70;;;0.40;;
35028;SDS011;35394;54.282;10.070;2023-10-31T16:29:30;0.30;;;0.20;;
35028;SDS011;35394;54.282;10.070;2023-10-31T16:30:01;0.20;;;0.15;;
35028;SDS011;35394;54.282;10.070;2023-10-31T16:30:32;0.10;;;0.10;;
35028;SDS011;35394;54.282;10.070;2023-10-31T16:31:03;0.50;;;0.20;;
35028;SDS011;35394;54.282;10.070;2023-10-31T16:31:34;0.52;;;0.20;;
35028;SDS011;35394;54.282;10.070;2023-10-31T16:32:05;0.40;;;0.30;;
35028;SDS011;35394;54.282;10.070;2023-10-31T16:32:35;0.57;;;0.20;;
35028;SDS011;35394;54.282;10.070;2023-10-31T16:33:06;0.13;;;0.10;;
35028;SDS011;35394;54.282;10.070;2023-10-31T16:33:36;0.40;;;0.22;;
35028;SDS011;35394;54.282;10.070;2023-10-31T16:34:07;0.67;;;0.20;;
35028;SDS011;35394;54.282;10.070;2023-10-31T16:34:37;0.23;;;0.20;;
35028;SDS011;35394;54.282;10.070;2023-10-31T16:35:08;0.40;;;0.20;;
35028;SDS011;35394;54.282;10.070;2023-10-31T16:35:39;0.30;;;0.20;;
35028;SDS011;35394;54.282;10.070;2023-10-31T16:36:09;0.30;;;0.20;;
35028;SDS011;35394;54.282;10.070;2023-10-31T16:36:40;0.37;;;0.17;;
35028;SDS011;35394;54.282;10.070;2023-10-31T16:37:10;0.10;;;0.10;;
35028;SDS011;35394;54.282;10.070;2023-10-31T16:37:41;0.40;;;0.15;;
35028;SDS011;35394;54.282;10.070;2023-10-31T16:38:11;0.27;;;0.23;;
35028;SDS011;35394;54.282;10.070;2023-10-31T16:38:42;0.22;;;0.15;;
35028;SDS011;35394;54.282;10.070;2023-10-31T16:39:12;0.40;;;0.20;;
35028;SDS011;35394;54.282;10.070;2023-10-31T16:39:43;0.20;;;0.20;;
35028;SDS011;35394;54.282;10.070;2023-10-31T16:40:14;0.03;;;0.03;;
35028;SDS011;35394;54.282;10.070;2023-10-31T16:40:44;0.70;;;0.10;;
35028;SDS011;35394;54.282;10.070;2023-10-31T16:41:15;0.10;;;0.10;;
35028;SDS011;35394;54.282;10.070;2023-10-31T16:41:46;0.20;;;0.20;;
35028;SDS011;35394;54.282;10.070;2023-10-31T16:42:17;0.85;;;0.20;;
35028;SDS011;35394;54.282;10.070;2023-10-31T16:42:47;0.40;;;0.20;;
35028;SDS011;35394;54.282;10.070;2023-10-31T16:43:18;0.20;;;0.20;;
35028;SDS011;35394;54.282;10.070;2023-10-31T16:43:49;0.20;;;0.10;;
35028;SDS011;35394;54.282;10.070;2023-10-31T16:44:20;0.25;;;0.17;;
35028;SDS011;35394;54.282;10.070;2023-10-31T16:44:51;1.00;;;0.20;;
35028;SDS011;35394;54.282;10.070;2023-10-31T16:45:21;0.30;;;0.27;;
35028;SDS011;35394;54.282;10.070;2023-10-31T16:45:52;0.40;;;0.20;;
35028;SDS011;35394;54.282;10.070;2023-10-31T16:46:22;0.40;;;0.20;;
35028;SDS011;35394;54.282;10.070;2023-10-31T16:46:53;0.17;;;0.10;;
35028;SDS011;35394;54.282;10.070;2023-10-31T16:47:23;0.17;;;0.17;;
35028;SDS011;35394;54.282;10.070;2023-10-31T16:47:54;0.53;;;0.23;;
35028;SDS011;35394;54.282;10.070;2023-10-31T16:48:24;0.10;;;0.10;;
35028;SDS011;35394;54.282;10.070;2023-10-31T16:48:55;0.30;;;0.20;;
35028;SDS011;35394;54.282;10.070;2023-10-31T16:49:25;0.22;;;0.22;;
35028;SDS011;35394;54.282;10.070;2023-10-31T16:49:56;0.10;;;0.10;;
35028;SDS011;35394;54.282;10.070;2023-10-31T16:50:27;0.30;;;0.20;;
35028;SDS011;35394;54.282;10.070;2023-10-31T16:51:01;0.10;;;0.10;;
35028;SDS011;35394;54.282;10.070;2023-10-31T16:51:31;0.60;;;0.20;;
35028;SDS011;35394;54.282;10.070;2023-10-31T16:52:02;0.10;;;0.10;;
35028;SDS011;35394;54.282;10.070;2023-10-31T16:52:33;0.50;;;0.20;;
35028;SDS011;35394;54.282;10.070;2023-10-31T16:53:04;0.20;;;0.20;;
35028;SDS011;35394;54.282;10.070;2023-10-31T16:53:36;0.30;;;0.20;;
35028;SDS011;35394;54.282;10.070;2023-10-31T16:54:08;0.10;;;0.10;;
35028;SDS011;35394;54.282;10.070;2023-10-31T16:54:38;0.20;;;0.10;;
35028;SDS011;35394;54.282;10.070;2023-10-31T16:55:09;0.00;;;0.00;;
35028;SDS011;35394;54.282;10.070;2023-10-31T16:55:40;0.30;;;0.20;;
35028;SDS011;35394;54.282;10.070;2023-10-31T16:56:11;0.25;;;0.20;;
35028;SDS011;35394;54.282;10.070;2023-10-31T16:56:41;0.10;;;0.10;;
35028;SDS011;35394;54.282;10.070;2023-10-31T16:57:12;0.20;;;0.20;;
35028;SDS011;35394;54.282;10.070;2023-10-31T16:57:42;0.40;;;0.10;;
35028;SDS011;35394;54.282;10.070;2023-10-31T16:58:13;0.30;;;0.23;;
35028;SDS011;35394;54.282;10.070;2023-10-31T16:58:44;0.10;;;0.10;;
35028;SDS011;35394;54.282;10.070;2023-10-31T16:59:15;0.43;;;0.20;;
35028;SDS011;35394;54.282;10.070;2023-10-31T16:59:46;0.10;;;0.10;;
35028;SDS011;35394;54.282;10.070;2023-10-31T17:00:16;0.10;;;0.10;;
35028;SDS011;35394;54.282;10.070;2023-10-31T17:00:47;0.20;;;0.20;;
35028;SDS011;35394;54.282;10.070;2023-10-31T17:01:18;0.20;;;0.10;;
35028;SDS011;35394;54.282;10.070;2023-10-31T17:01:48;0.65;;;0.20;;
35028;SDS011;35394;54.282;10.070;2023-10-31T17:02:19;0.10;;;0.10;;
35028;SDS011;35394;54.282;10.070;2023-10-31T17:02:50;0.20;;;0.20;;
35028;SDS011;35394;54.282;10.070;2023-10-31T17:03:21;0.10;;;0.10;;
35028;SDS011;35394;54.282;10.070;2023-10-31T17:03:51;0.10;;;0.10;;
35028;SDS011;35394;54.282;10.070;2023-10-31T17:04:22;0.13;;;0.10;;
35028;SDS011;35394;54.282;10.070;2023-10-31T17:04:52;0.27;;;0.10;;
35028;SDS011;35394;54.282;10.070;2023-10-31T17:05:26;0.10;;;0.10;;
35028;SDS011;35394;54.282;10.070;2023-10-31T17:05:57;0.30;;;0.10;;
35028;SDS011;35394;54.282;10.070;2023-10-31T17:06:27;0.30;;;0.20;;
35028;SDS011;35394;54.282;10.070;2023-10-31T17:06:58;0.20;;;0.10;;
35028;SDS011;35394;54.282;10.070;2023-10-31T17:07:28;0.10;;;0.10;;
35028;SDS011;35394;54.282;10.070;2023-10-31T17:07:59;0.40;;;0.10;;
35028;SDS011;35394;54.282;10.070;2023-10-31T17:08:29;0.25;;;0.20;;
35028;SDS011;35394;54.282;10.070;2023-10-31T17:09:00;0.10;;;0.10;;
35028;SDS011;35394;54.282;10.070;2023-10-31T17:09:30;0.10;;;0.10;;
35028;SDS011;35394;54.282;10.070;2023-10-31T17:10:01;0.50;;;0.20;;
35028;SDS011;35394;54.282;10.070;2023-10-31T17:10:31;0.10;;;0.10;;
35028;SDS011;35394;54.282;10.070;2023-10-31T17:11:02;0.40;;;0.10;;
35028;SDS011;35394;54.282;10.070;2023-10-31T17:11:33;0.68;;;0.20;;
35028;SDS011;35394;54.282;10.070;2023-10-31T17:12:04;0.30;;;0.20;;
35028;SDS011;35394;54.282;10.070;2023-10-31T17:12:35;0.10;;;0.03;;
35028;SDS011;35394;54.282;10.070;2023-10-31T17:13:05;0.20;;;0.10;;
35028;SDS011;35394;54.282;10.070;2023-10-31T17:13:37;0.60;;;0.30;;
35028;SDS011;35394;54.282;10.070;2023-10-31T17:14:07;0.10;;;0.10;;
35028;SDS011;35394;54.282;10.070;2023-10-31T17:14:38;0.10;;;0.10;;
35028;SDS011;35394;54.282;10.070;2023-10-31T17:15:08;0.30;;;0.10;;
35028;SDS011;35394;54.282;10.070;2023-10-31T17:15:39;0.15;;;0.10;;
35028;SDS011;35394;54.282;10.070;2023-10-31T17:16:09;0.23;;;0.10;;
35028;SDS011;35394;54.282;10.070;2023-10-31T17:16:40;0.50;;;0.20;;
35028;SDS011;35394;54.282;10.070;2023-10-31T17:17:11;0.00;;;0.00;;
35028;SDS011;35394;54.282;10.070;2023-10-31T17:17:41;0.10;;;0.10;;
35028;SDS011;35394;54.282;10.070;2023-10-31T17:18:12;0.20;;;0.10;;
35028;SDS011;35394;54.282;10.070;2023-10-31T17:18:43;0.20;;;0.10;;
35028;SDS011;35394;54.282;10.070;2023-10-31T17:19:13;0.50;;;0.10;;
35028;SDS011;35394;54.282;10.070;2023-10-31T17:19:44;0.30;;;0.20;;
35028;SDS011;35394;54.282;10.070;2023-10-31T17:20:14;0.30;;;0.10;;
35028;SDS011;35394;54.282;10.070;2023-10-31T17:20:45;0.77;;;0.10;;
35028;SDS011;35394;54.282;10.070;2023-10-31T17:21:17;0.15;;;0.05;;
35028;SDS011;35394;54.282;10.070;2023-10-31T17:21:48;0.20;;;0.17;;
35028;SDS011;35394;54.282;10.070;2023-10-31T17:22:21;0.32;;;0.20;;
35028;SDS011;35394;54.282;10.070;2023-10-31T17:22:51;0.37;;;0.20;;
35028;SDS011;35394;54.282;10.070;2023-10-31T17:23:22;0.07;;;0.07;;
35028;SDS011;35394;54.282;10.070;2023-10-31T17:23:53;0.40;;;0.10;;
35028;SDS011;35394;54.282;10.070;2023-10-31T17:24:24;0.30;;;0.20;;
35028;SDS011;35394;54.282;10.070;2023-10-31T17:24:54;0.20;;;0.10;;
35028;SDS011;35394;54.282;10.070;2023-10-31T17:25:25;0.13;;;0.10;;
35028;SDS011;35394;54.282;10.070;2023-10-31T17:25:55;0.40;;;0.20;;
35028;SDS011;35394;54.282;10.070;2023-10-31T17:26:26;0.40;;;0.27;;
35028;SDS011;35394;54.282;10.070;2023-10-31T17:26:56;0.55;;;0.30;;
35028;SDS011;35394;54.282;10.070;2023-10-31T17:27:27;0.32;;;0.20;;
35028;SDS011;35394;54.282;10.070;2023-10-31T17:27:58;0.40;;;0.20;;
35028;SDS011;35394;54.282;10.070;2023-10-31T17:28:28;0.90;;;0.30;;
35028;SDS011;35394;54.282;10.070;2023-10-31T17:29:01;1.25;;;0.47;;
35028;SDS011;35394;54.282;10.070;2023-10-31T17:29:33;0.50;;;0.30;;
35028;SDS011;35394;54.282;10.070;2023-10-31T17:30:04;0.38;;;0.20;;
35028;SDS011;35394;54.282;10.070;2023-10-31T17:30:36;0.52;;;0.30;;
35028;SDS011;35394;54.282;10.070;2023-10-31T17:31:06;0.60;;;0.20;;
35028;SDS011;35394;54.282;10.070;2023-10-31T17:31:40;0.98;;;0.40;;
35028;SDS011;35394;54.282;10.070;2023-10-31T17:32:11;0.65;;;0.28;;
35028;SDS011;35394;54.282;10.070;2023-10-31T17:32:41;1.02;;;0.30;;
35028;SDS011;35394;54.282;10.070;2023-10-31T17:33:13;0.68;;;0.30;;
35028;SDS011;35394;54.282;10.070;2023-10-31T17:33:44;0.43;;;0.30;;
35028;SDS011;35394;54.282;10.070;2023-10-31T17:34:14;0.73;;;0.30;;
35028;SDS011;35394;54.282;10.070;2023-10-31T17:34:45;0.80;;;0.38;;
35028;SDS011;35394;54.282;10.070;2023-10-31T17:35:16;0.30;;;0.17;;
35028;SDS011;35394;54.282;10.070;2023-10-31T17:35:46;0.38;;;0.20;;
35028;SDS011;35394;54.282;10.070;2023-10-31T17:36:17;0.63;;;0.30;;
35028;SDS011;35394;54.282;10.070;2023-10-31T17:36:49;0.93;;;0.40;;
35028;SDS011;35394;54.282;10.070;2023-10-31T17:37:19;0.47;;;0.30;;
35028;SDS011;35394;54.282;10.070;2023-10-31T17:37:50;0.80;;;0.30;;
35028;SDS011;35394;54.282;10.070;2023-10-31T17:38:20;0.70;;;0.40;;
35028;SDS011;35394;54.282;10.070;2023-10-31T17:38:52;0.88;;;0.40;;
35028;SDS011;35394;54.282;10.070;2023-10-31T17:39:22;0.83;;;0.33;;
35028;SDS011;35394;54.282;10.070;2023-10-31T17:39:53;1.15;;;0.50;;
35028;SDS011;35394;54.282;10.070;2023-10-31T17:40:23;0.80;;;0.40;;
35028;SDS011;35394;54.282;10.070;2023-10-31T17:40:54;0.60;;;0.30;;
35028;SDS011;35394;54.282;10.070;2023-10-31T17:41:26;0.68;;;0.40;;
35028;SDS011;35394;54.282;10.070;2023-10-31T17:41:57;1.10;;;0.30;;
35028;SDS011;35394;54.282;10.070;2023-10-31T17:42:27;1.00;;;0.50;;
35028;SDS011;35394;54.282;10.070;2023-10-31T17:42:58;0.80;;;0.50;;
35028;SDS011;35394;54.282;10.070;2023-10-31T17:43:28;1.15;;;0.50;;
35028;SDS011;35394;54.282;10.070;2023-10-31T17:43:59;0.87;;;0.50;;
35028;SDS011;35394;54.282;10.070;2023-10-31T17:44:29;2.10;;;0.50;;
35028;SDS011;35394;54.282;10.070;2023-10-31T17:45:00;1.80;;;0.50;;
35028;SDS011;35394;54.282;10.070;2023-10-31T17:45:31;1.63;;;0.40;;
35028;SDS011;35394;54.282;10.070;2023-10-31T17:46:02;1.17;;;0.40;;
35028;SDS011;35394;54.282;10.070;2023-10-31T17:46:32;0.95;;;0.40;;
35028;SDS011;35394;54.282;10.070;2023-10-31T17:47:03;0.23;;;0.20;;
35028;SDS011;35394;54.282;10.070;2023-10-31T17:47:34;0.80;;;0.40;;
35028;SDS011;35394;54.282;10.070;2023-10-31T17:48:04;0.90;;;0.40;;
35028;SDS011;35394;54.282;10.070;2023-10-31T17:48:35;1.02;;;0.55;;
35028;SDS011;35394;54.282;10.070;2023-10-31T17:49:05;0.50;;;0.33;;
35028;SDS011;35394;54.282;10.070;2023-10-31T17:49:36;0.77;;;0.30;;
35028;SDS011;35394;54.282;10.070;2023-10-31T17:50:07;0.60;;;0.30;;
35028;SDS011;35394;54.282;10.070;2023-10-31T17:50:37;1.00;;;0.50;;
35028;SDS011;35394;54.282;10.070;2023-10-31T17:51:08;0.70;;;0.40;;
35028;SDS011;35394;54.282;10.070;2023-10-31T17:51:39;0.97;;;0.50;;
35028;SDS011;35394;54.282;10.070;2023-10-31T17:52:11;0.87;;;0.37;;
35028;SDS011;35394;54.282;10.070;2023-10-31T17:52:42;1.95;;;0.47;;
35028;SDS011;35394;54.282;10.070;2023-10-31T17:53:12;1.50;;;0.60;;
35028;SDS011;35394;54.282;10.070;2023-10-31T17:53:43;0.90;;;0.47;;
35028;SDS011;35394;54.282;10.070;2023-10-31T17:54:13;0.88;;;0.40;;
35028;SDS011;35394;54.282;10.070;2023-10-31T17:54:44;1.10;;;0.30;;
35028;SDS011;35394;54.282;10.070;2023-10-31T17:55:15;0.90;;;0.35;;
35028;SDS011;35394;54.282;10.070;2023-10-31T17:55:49;1.40;;;0.60;;
35028;SDS011;35394;54.282;10.070;2023-10-31T17:56:19;0.90;;;0.40;;
35028;SDS011;35394;54.282;10.070;2023-10-31T17:56:50;1.10;;;0.32;;
35028;SDS011;35394;54.282;10.070;2023-10-31T17:57:20;0.87;;;0.50;;
35028;SDS011;35394;54.282;10.070;2023-10-31T17:57:51;0.80;;;0.53;;
35028;SDS011;35394;54.282;10.070;2023-10-31T17:58:21;0.50;;;0.40;;
35028;SDS011;35394;54.282;10.070;2023-10-31T17:58:52;1.10;;;0.40;;
35028;SDS011;35394;54.282;10.070;2023-10-31T17:59:23;1.33;;;0.50;;
35028;SDS011;35394;54.282;10.070;2023-10-31T17:59:53;0.75;;;0.50;;
35028;SDS011;35394;54.282;10.070;2023-10-31T18:00:24;1.07;;;0.40;;
35028;SDS011;35394;54.282;10.070;2023-10-31T18:00:54;1.40;;;0.63;;
35028;SDS011;35394;54.282;10.070;2023-10-31T18:01:25;0.73;;;0.20;;
35028;SDS011;35394;54.282;10.070;2023-10-31T18:01:55;0.57;;;0.40;;
35028;SDS011;35394;54.282;10.070;2023-10-31T18:02:26;0.90;;;0.60;;
35028;SDS011;35394;54.282;10.070;2023-10-31T18:02:57;1.10;;;0.50;;
35028;SDS011;35394;54.282;10.070;2023-10-31T18:03:28;0.82;;;0.40;;
35028;SDS011;35394;54.282;10.070;2023-10-31T18:03:58;0.75;;;0.57;;
35028;SDS011;35394;54.282;10.070;2023-10-31T18:04:29;0.60;;;0.30;;
35028;SDS011;35394;54.282;10.070;2023-10-31T18:05:01;1.42;;;0.60;;
35028;SDS011;35394;54.282;10.070;2023-10-31T18:05:32;1.60;;;0.50;;
35028;SDS011;35394;54.282;10.070;2023-10-31T18:06:03;1.33;;;0.52;;
35028;SDS011;35394;54.282;10.070;2023-10-31T18:06:35;0.52;;;0.35;;
35028;SDS011;35394;54.282;10.070;2023-10-31T18:07:05;0.98;;;0.40;;
35028;SDS011;35394;54.282;10.070;2023-10-31T18:07:36;0.50;;;0.47;;
35028;SDS011;35394;54.282;10.070;2023-10-31T18:08:08;0.55;;;0.50;;
35028;SDS011;35394;54.282;10.070;2023-10-31T18:08:38;0.80;;;0.43;;
35028;SDS011;35394;54.282;10.070;2023-10-31T18:09:09;0.73;;;0.40;;
35028;SDS011;35394;54.282;10.070;2023-10-31T18:09:42;0.70;;;0.50;;
35028;SDS011;35394;54.282;10.070;2023-10-31T18:10:13;0.80;;;0.60;;
35028;SDS011;35394;54.282;10.070;2023-10-31T18:10:43;0.73;;;0.52;;
35028;SDS011;35394;54.282;10.070;2023-10-31T18:11:14;1.77;;;0.67;;
35028;SDS011;35394;54.282;10.070;2023-10-31T18:11:44;0.90;;;0.40;;
35028;SDS011;35394;54.282;10.070;2023-10-31T18:12:15;1.13;;;0.60;;
35028;SDS011;35394;54.282;10.070;2023-10-31T18:12:47;1.13;;;0.45;;
35028;SDS011;35394;54.282;10.070;2023-10-31T18:13:19;0.98;;;0.50;;
35028;SDS011;35394;54.282;10.070;2023-10-31T18:13:50;0.65;;;0.40;;
35028;SDS011;35394;54.282;10.070;2023-10-31T18:14:21;0.77;;;0.43;;
35028;SDS011;35394;54.282;10.070;2023-10-31T18:14:51;0.65;;;0.32;;
35028;SDS011;35394;54.282;10.070;2023-10-31T18:15:22;0.40;;;0.30;;
35028;SDS011;35394;54.282;10.070;2023-10-31T18:15:52;0.50;;;0.40;;
35028;SDS011;35394;54.282;10.070;2023-10-31T18:16:23;0.83;;;0.43;;
35028;SDS011;35394;54.282;10.070;2023-10-31T18:16:53;1.10;;;0.60;;
35028;SDS011;35394;54.282;10.070;2023-10-31T18:17:24;1.40;;;0.57;;
35028;SDS011;35394;54.282;10.070;2023-10-31T18:17:54;1.00;;;0.50;;
35028;SDS011;35394;54.282;10.070;2023-10-31T18:18:25;0.50;;;0.50;;
35028;SDS011;35394;54.282;10.070;2023-10-31T18:18:55;0.67;;;0.50;;
35028;SDS011;35394;54.282;10.070;2023-10-31T18:19:26;0.50;;;0.30;;
35028;SDS011;35394;54.282;10.070;2023-10-31T18:19:58;0.88;;;0.47;;
35028;SDS011;35394;54.282;10.070;2023-10-31T18:20:28;0.67;;;0.43;;
35028;SDS011;35394;54.282;10.070;2023-10-31T18:20:59;0.40;;;0.32;;
35028;SDS011;35394;54.282;10.070;2023-10-31T18:21:32;0.90;;;0.57;;
35028;SDS011;35394;54.282;10.070;2023-10-31T18:22:03;0.60;;;0.40;;
35028;SDS011;35394;54.282;10.070;2023-10-31T18:22:33;0.60;;;0.37;;
35028;SDS011;35394;54.282;10.070;2023-10-31T18:23:06;0.60;;;0.50;;
35028;SDS011;35394;54.282;10.070;2023-10-31T18:23:36;1.07;;;0.50;;
35028;SDS011;35394;54.282;10.070;2023-10-31T18:24:07;0.83;;;0.50;;
35028;SDS011;35394;54.282;10.070;2023-10-31T18:24:37;0.90;;;0.50;;
35028;SDS011;35394;54.282;10.070;2023-10-31T18:25:08;1.30;;;0.40;;
35028;SDS011;35394;54.282;10.070;2023-10-31T18:25:40;0.85;;;0.40;;
35028;SDS011;35394;54.282;10.070;2023-10-31T18:26:10;0.50;;;0.30;;
35028;SDS011;35394;54.282;10.070;2023-10-31T18:26:41;1.13;;;0.60;;
35028;SDS011;35394;54.282;10.070;2023-10-31T18:27:11;0.90;;;0.57;;
35028;SDS011;35394;54.282;10.070;2023-10-31T18:27:42;0.87;;;0.50;;
35028;SDS011;35394;54.282;10.070;2023-10-31T18:28:13;0.73;;;0.50;;
35028;SDS011;35394;54.282;10.070;2023-10-31T18:28:43;0.97;;;0.50;;
35028;SDS011;35394;54.282;10.070;2023-10-31T18:29:14;0.80;;;0.52;;
35028;SDS011;35394;54.282;10.070;2023-10-31T18:29:44;0.83;;;0.47;;
35028;SDS011;35394;54.282;10.070;2023-10-31T18:30:15;1.15;;;0.43;;
35028;SDS011;35394;54.282;10.070;2023-10-31T18:30:46;0.98;;;0.60;;
35028;SDS011;35394;54.282;10.070;2023-10-31T18:31:16;1.77;;;0.47;;
35028;SDS011;35394;54.282;10.070;2023-10-31T18:31:47;0.57;;;0.43;;
35028;SDS011;35394;54.282;10.070;2023-10-31T18:32:19;0.88;;;0.50;;
35028;SDS011;35394;54.282;10.070;2023-10-31T18:32:51;1.23;;;0.60;;
35028;SDS011;35394;54.282;10.070;2023-10-31T18:33:22;1.20;;;0.50;;
35028;SDS011;35394;54.282;10.070;2023-10-31T18:33:52;0.70;;;0.50;;
35028;SDS011;35394;54.282;10.070;2023-10-31T18:34:23;0.90;;;0.50;;
35028;SDS011;35394;54.282;10.070;2023-10-31T18:34:53;0.80;;;0.40;;
35028;SDS011;35394;54.282;10.070;2023-10-31T18:35:24;0.50;;;0.30;;
35028;SDS011;35394;54.282;10.070;2023-10-31T18:35:58;0.57;;;0.40;;
35028;SDS011;35394;54.282;10.070;2023-10-31T18:36:29;1.48;;;0.50;;
35028;SDS011;35394;54.282;10.070;2023-10-31T18:37:01;1.42;;;0.40;;
35028;SDS011;35394;54.282;10.070;2023-10-31T18:37:32;0.88;;;0.47;;
35028;SDS011;35394;54.282;10.070;2023-10-31T18:38:02;0.60;;;0.40;;
35028;SDS011;35394;54.282;10.070;2023-10-31T18:38:33;0.50;;;0.40;;
35028;SDS011;35394;54.282;10.070;2023-10-31T18:39:04;1.25;;;0.50;;
35028;SDS011;35394;54.282;10.070;2023-10-31T18:39:35;0.68;;;0.40;;
35028;SDS011;35394;54.282;10.070;2023-10-31T18:40:05;0.60;;;0.53;;
35028;SDS011;35394;54.282;10.070;2023-10-31T18:40:38;0.88;;;0.57;;
35028;SDS011;35394;54.282;10.070;2023-10-31T18:41:09;0.77;;;0.40;;
35028;SDS011;35394;54.282;10.070;2023-10-31T18:41:39;0.95;;;0.50;;
35028;SDS011;35394;54.282;10.070;2023-10-31T18:42:12;0.80;;;0.50;;
35028;SDS011;35394;54.282;10.070;2023-10-31T18:42:44;0.50;;;0.38;;
35028;SDS011;35394;54.282;10.070;2023-10-31T18:43:14;0.40;;;0.40;;
35028;SDS011;35394;54.282;10.070;2023-10-31T18:43:45;0.97;;;0.40;;
35028;SDS011;35394;54.282;10.070;2023-10-31T18:44:15;1.00;;;0.45;;
35028;SDS011;35394;54.282;10.070;2023-10-31T18:44:46;0.77;;;0.47;;
35028;SDS011;35394;54.282;10.070;2023-10-31T18:45:16;0.50;;;0.30;;
35028;SDS011;35394;54.282;10.070;2023-10-31T18:45:47;0.90;;;0.50;;
35028;SDS011;35394;54.282;10.070;2023-10-31T18:46:18;0.40;;;0.40;;
35028;SDS011;35394;54.282;10.070;2023-10-31T18:46:48;0.60;;;0.40;;
35028;SDS011;35394;54.282;10.070;2023-10-31T18:47:19;0.43;;;0.30;;
35028;SDS011;35394;54.282;10.070;2023-10-31T18:47:51;0.52;;;0.40;;
35028;SDS011;35394;54.282;10.070;2023-10-31T18:48:22;1.05;;;0.47;;
35028;SDS011;35394;54.282;10.070;2023-10-31T18:48:52;0.90;;;0.40;;
35028;SDS011;35394;54.282;10.070;2023-10-31T18:49:23;0.80;;;0.40;;
35028;SDS011;35394;54.282;10.070;2023-10-31T18:49:53;0.90;;;0.40;;
35028;SDS011;35394;54.282;10.070;2023-10-31T18:50:24;0.70;;;0.50;;
35028;SDS011;35394;54.282;10.070;2023-10-31T18:50:54;0.60;;;0.33;;
35028;SDS011;35394;54.282;10.070;2023-10-31T18:51:25;0.70;;;0.50;;
35028;SDS011;35394;54.282;10.070;2023-10-31T18:51:56;0.73;;;0.50;;
35028;SDS011;35394;54.282;10.070;2023-10-31T18:52:26;0.60;;;0.38;;
35028;SDS011;35394;54.282;10.070;2023-10-31T18:52:57;1.00;;;0.40;;
35028;SDS011;35394;54.282;10.070;2023-10-31T18:53:28;0.65;;;0.35;;
35028;SDS011;35394;54.282;10.070;2023-10-31T18:53:58;1.20;;;0.40;;
35028;SDS011;35394;54.282;10.070;2023-10-31T18:54:29;0.40;;;0.20;;
35028;SDS011;35394;54.282;10.070;2023-10-31T18:54:59;1.50;;;0.40;;
35028;SDS011;35394;54.282;10.070;2023-10-31T18:55:30;0.80;;;0.40;;
35028;SDS011;35394;54.282;10.070;2023-10-31T18:56:00;0.50;;;0.40;;
35028;SDS011;35394;54.282;10.070;2023-10-31T18:56:31;1.55;;;0.40;;
35028;SDS011;35394;54.282;10.070;2023-10-31T18:57:01;0.77;;;0.40;;
35028;SDS011;35394;54.282;10.070;2023-10-31T18:57:32;0.77;;;0.50;;
35028;SDS011;35394;54.282;10.070;2023-10-31T18:58:03;0.70;;;0.32;;
35028;SDS011;35394;54.282;10.070;2023-10-31T18:58:33;0.53;;;0.40;;
35028;SDS011;35394;54.282;10.070;2023-10-31T18:59:04;0.65;;;0.50;;
35028;SDS011;35394;54.282;10.070;2023-10-31T18:59:34;0.87;;;0.50;;
35028;SDS011;35394;54.282;10.070;2023-10-31T19:00:05;0.40;;;0.30;;
35028;SDS011;35394;54.282;10.070;2023-10-31T19:00:37;0.47;;;0.40;;
35028;SDS011;35394;54.282;10.070;2023-10-31T19:01:08;0.90;;;0.47;;
35028;SDS011;35394;54.282;10.070;2023-10-31T19:01:38;0.38;;;0.30;;
35028;SDS011;35394;54.282;10.070;2023-10-31T19:02:09;0.80;;;0.30;;
35028;SDS011;35394;54.282;10.070;2023-10-31T19:02:39;0.85;;;0.40;;
35028;SDS011;35394;54.282;10.070;2023-10-31T19:03:10;0.97;;;0.50;;
35028;SDS011;35394;54.282;10.070;2023-10-31T19:03:40;0.50;;;0.35;;
35028;SDS011;35394;54.282;10.070;2023-10-31T19:04:11;0.32;;;0.32;;
35028;SDS011;35394;54.282;10.070;2023-10-31T19:04:43;0.82;;;0.50;;
35028;SDS011;35394;54.282;10.070;2023-10-31T19:05:13;0.60;;;0.40;;
35028;SDS011;35394;54.282;10.070;2023-10-31T19:05:45;0.73;;;0.40;;
35028;SDS011;35394;54.282;10.070;2023-10-31T19:06:15;0.63;;;0.40;;
35028;SDS011;35394;54.282;10.070;2023-10-31T19:06:46;0.90;;;0.43;;
35028;SDS011;35394;54.282;10.070;2023-10-31T19:07:16;1.20;;;0.40;;
35028;SDS011;35394;54.282;10.070;2023-10-31T19:07:47;1.20;;;0.70;;
35028;SDS011;35394;54.282;10.070;2023-10-31T19:08:17;0.50;;;0.30;;
35028;SDS011;35394;54.282;10.070;2023-10-31T19:08:48;0.63;;;0.40;;
35028;SDS011;35394;54.282;10.070;2023-10-31T19:09:18;0.40;;;0.30;;
35028;SDS011;35394;54.282;10.070;2023-10-31T19:09:49;0.60;;;0.40;;
35028;SDS011;35394;54.282;10.070;2023-10-31T19:10:20;1.10;;;0.47;;
35028;SDS011;35394;54.282;10.070;2023-10-31T19:10:52;0.82;;;0.52;;
35028;SDS011;35394;54.282;10.070;2023-10-31T19:11:23;0.40;;;0.35;;
35028;SDS011;35394;54.282;10.070;2023-10-31T19:11:54;0.52;;;0.40;;
35028;SDS011;35394;54.282;10.070;2023-10-31T19:12:24;0.53;;;0.37;;
35028;SDS011;35394;54.282;10.070;2023-10-31T19:12:55;0.55;;;0.40;;
35028;SDS011;35394;54.282;10.070;2023-10-31T19:13:26;0.70;;;0.40;;
35028;SDS011;35394;54.282;10.070;2023-10-31T19:13:56;0.57;;;0.30;;
35028;SDS011;35394;54.282;10.070;2023-10-31T19:14:27;0.35;;;0.30;;
35028;SDS011;35394;54.282;10.070;2023-10-31T19:15:00;0.60;;;0.50;;
35028;SDS011;35394;54.282;10.070;2023-10-31T19:15:30;0.73;;;0.40;;
35028;SDS011;35394;54.282;10.070;2023-10-31T19:16:01;0.53;;;0.40;;
35028;SDS011;35394;54.282;10.070;2023-10-31T19:16:31;0.50;;;0.40;;
35028;SDS011;35394;54.282;10.070;2023-10-31T19:17:03;0.20;;;0.20;;
35028;SDS011;35394;54.282;10.070;2023-10-31T19:17:33;0.35;;;0.35;;
35028;SDS011;35394;54.282;10.070;2023-10-31T19:18:04;1.00;;;0.50;;